sensor_id;sensor_type;location;lat;lon;timestamp;temperature;humidity
19389;DHT22;9830;41.876;23.474;2024-01-15T00:01:56;-6.90;99.90
19389;DHT22;9830;41.876;23.474;2024-01-15T00:04:22;-6.90;99.90
19389;DHT22;9830;41.876;23.474;2024-01-15T00:06:48;-6.90;99.90
19389;DHT22;9830;41.876;23.474;2024-01-15T00:09:14;-6.80;99.90
19389;DHT22;9830;41.876;23.474;2024-01-15T00:11:40;-6.80;99.90
19389;DHT22;9830;41.876;23.474;2024-01-15T00:14:06;-6.90;99.90
19389;DHT22;9830;41.876;23.474;2024-01-15T00:16:31;-6.90;99.90
19389;DHT22;9830;41.876;23.474;2024-01-15T00:18:57;-7.00;99.90
19389;DHT22;9830;41.876;23.474;2024-01-15T00:21:23;-7.00;99.90
19389;DHT22;9830;41.876;23.474;2024-01-15T00:23:48;-7.00;99.90
19389;DHT22;9830;41.876;23.474;2024-01-15T00:26:14;-7.00;99.90
19389;DHT22;9830;41.876;23.474;2024-01-15T00:28:40;-7.10;99.90
19389;DHT22;9830;41.876;23.474;2024-01-15T00:31:06;-7.10;99.90
19389;DHT22;9830;41.876;23.474;2024-01-15T00:33:32;-7.10;99.90
19389;DHT22;9830;41.876;23.474;2024-01-15T00:35:57;-7.10;99.90
19389;DHT22;9830;41.876;23.474;2024-01-15T00:38:23;-7.10;99.90
19389;DHT22;9830;41.876;23.474;2024-01-15T00:40:49;-7.10;99.90
19389;DHT22;9830;41.876;23.474;2024-01-15T00:43:15;-7.10;99.90
19389;DHT22;9830;41.876;23.474;2024-01-15T00:45:43;-7.10;99.90
19389;DHT22;9830;41.876;23.474;2024-01-15T00:48:09;-7.20;99.90
19389;DHT22;9830;41.876;23.474;2024-01-15T00:50:35;-7.30;99.90
19389;DHT22;9830;41.876;23.474;2024-01-15T00:53:00;-7.20;99.90
19389;DHT22;9830;41.876;23.474;2024-01-15T00:55:28;-7.20;99.90
19389;DHT22;9830;41.876;23.474;2024-01-15T00:57:54;-7.30;99.90
19389;DHT22;9830;41.876;23.474;2024-01-15T01:00:19;-7.30;99.90
19389;DHT22;9830;41.876;23.474;2024-01-15T01:02:45;-7.20;99.90
19389;DHT22;9830;41.876;23.474;2024-01-15T01:05:11;-7.20;99.90
19389;DHT22;9830;41.876;23.474;2024-01-15T01:07:36;-7.20;99.90
19389;DHT22;9830;41.876;23.474;2024-01-15T01:10:02;-7.20;99.90
19389;DHT22;9830;41.876;23.474;2024-01-15T01:12:28;-7.10;99.90
19389;DHT22;9830;41.876;23.474;2024-01-15T01:14:55;-7.10;99.90
19389;DHT22;9830;41.876;23.474;2024-01-15T01:17:21;-7.10;99.90
19389;DHT22;9830;41.876;23.474;2024-01-15T01:19:46;-7.20;99.90
19389;DHT22;9830;41.876;23.474;2024-01-15T01:22:12;-7.20;99.90
19389;DHT22;9830;41.876;23.474;2024-01-15T01:24:38;-7.10;99.90
19389;DHT22;9830;41.876;23.474;2024-01-15T01:27:04;-7.20;99.90
19389;DHT22;9830;41.876;23.474;2024-01-15T01:29:29;-7.20;99.90
19389;DHT22;9830;41.876;23.474;2024-01-15T01:31:55;-7.10;99.90
19389;DHT22;9830;41.876;23.474;2024-01-15T01:34:22;-7.10;99.90
19389;DHT22;9830;41.876;23.474;2024-01-15T01:36:47;-7.10;99.90
19389;DHT22;9830;41.876;23.474;2024-01-15T01:39:13;-7.10;99.90
19389;DHT22;9830;41.876;23.474;2024-01-15T01:41:39;-7.00;99.90
19389;DHT22;9830;41.876;23.474;2024-01-15T01:44:05;-7.00;99.90
19389;DHT22;9830;41.876;23.474;2024-01-15T01:46:31;-7.00;99.90
19389;DHT22;9830;41.876;23.474;2024-01-15T01:48:57;-7.00;99.90
19389;DHT22;9830;41.876;23.474;2024-01-15T01:51:24;-7.00;99.90
19389;DHT22;9830;41.876;23.474;2024-01-15T01:53:50;-7.00;99.90
19389;DHT22;9830;41.876;23.474;2024-01-15T01:56:17;-7.00;99.90
19389;DHT22;9830;41.876;23.474;2024-01-15T01:58:44;-7.00;99.90
19389;DHT22;9830;41.876;23.474;2024-01-15T02:01:11;-7.00;99.90
19389;DHT22;9830;41.876;23.474;2024-01-15T02:03:39;-7.00;99.90
19389;DHT22;9830;41.876;23.474;2024-01-15T02:06:05;-7.00;99.90
19389;DHT22;9830;41.876;23.474;2024-01-15T02:08:33;-7.00;99.90
19389;DHT22;9830;41.876;23.474;2024-01-15T02:11:00;-7.00;99.90
19389;DHT22;9830;41.876;23.474;2024-01-15T02:13:26;-7.10;99.90
19389;DHT22;9830;41.876;23.474;2024-01-15T02:15:51;-7.00;99.90
19389;DHT22;9830;41.876;23.474;2024-01-15T02:18:17;-7.00;99.90
19389;DHT22;9830;41.876;23.474;2024-01-15T02:20:43;-7.00;99.90
19389;DHT22;9830;41.876;23.474;2024-01-15T02:23:14;-7.10;99.90
19389;DHT22;9830;41.876;23.474;2024-01-15T02:25:45;-7.10;99.90
19389;DHT22;9830;41.876;23.474;2024-01-15T02:28:12;-7.10;99.90
19389;DHT22;9830;41.876;23.474;2024-01-15T02:30:39;-7.10;99.90
19389;DHT22;9830;41.876;23.474;2024-01-15T02:33:06;-7.10;99.90
19389;DHT22;9830;41.876;23.474;2024-01-15T02:35:32;-7.10;99.90
19389;DHT22;9830;41.876;23.474;2024-01-15T02:37:58;-7.20;99.90
19389;DHT22;9830;41.876;23.474;2024-01-15T02:40:24;-7.20;99.90
19389;DHT22;9830;41.876;23.474;2024-01-15T02:42:50;-7.20;99.90
19389;DHT22;9830;41.876;23.474;2024-01-15T02:45:19;-7.30;99.90
19389;DHT22;9830;41.876;23.474;2024-01-15T02:47:45;-7.30;99.90
19389;DHT22;9830;41.876;23.474;2024-01-15T02:50:10;-7.30;99.90
19389;DHT22;9830;41.876;23.474;2024-01-15T02:52:36;-7.30;99.90
19389;DHT22;9830;41.876;23.474;2024-01-15T02:55:02;-7.30;99.90
19389;DHT22;9830;41.876;23.474;2024-01-15T02:57:28;-7.30;99.90
19389;DHT22;9830;41.876;23.474;2024-01-15T02:59:54;-7.30;99.90
19389;DHT22;9830;41.876;23.474;2024-01-15T03:02:19;-7.30;99.90
19389;DHT22;9830;41.876;23.474;2024-01-15T03:04:45;-7.40;99.90
19389;DHT22;9830;41.876;23.474;2024-01-15T03:07:15;-7.40;99.90
19389;DHT22;9830;41.876;23.474;2024-01-15T03:09:44;-7.40;99.90
19389;DHT22;9830;41.876;23.474;2024-01-15T03:12:11;-7.40;99.90
19389;DHT22;9830;41.876;23.474;2024-01-15T03:14:37;-7.40;99.90
19389;DHT22;9830;41.876;23.474;2024-01-15T03:17:03;-7.40;99.90
19389;DHT22;9830;41.876;23.474;2024-01-15T03:19:28;-7.40;99.90
19389;DHT22;9830;41.876;23.474;2024-01-15T03:21:54;-7.50;99.90
19389;DHT22;9830;41.876;23.474;2024-01-15T03:24:20;-7.50;99.90
19389;DHT22;9830;41.876;23.474;2024-01-15T03:26:46;-7.60;99.90
19389;DHT22;9830;41.876;23.474;2024-01-15T03:29:11;-7.60;99.90
19389;DHT22;9830;41.876;23.474;2024-01-15T03:31:37;-7.60;99.90
19389;DHT22;9830;41.876;23.474;2024-01-15T03:34:03;-7.70;99.90
19389;DHT22;9830;41.876;23.474;2024-01-15T03:36:29;-7.70;99.90
19389;DHT22;9830;41.876;23.474;2024-01-15T03:38:54;-7.70;99.90
19389;DHT22;9830;41.876;23.474;2024-01-15T03:41:20;-7.70;99.90
19389;DHT22;9830;41.876;23.474;2024-01-15T03:43:46;-7.70;99.90
19389;DHT22;9830;41.876;23.474;2024-01-15T03:46:11;-7.70;99.90
19389;DHT22;9830;41.876;23.474;2024-01-15T03:48:38;-7.80;99.90
19389;DHT22;9830;41.876;23.474;2024-01-15T03:51:04;-7.80;99.90
19389;DHT22;9830;41.876;23.474;2024-01-15T03:53:29;-7.80;99.90
19389;DHT22;9830;41.876;23.474;2024-01-15T03:55:55;-7.80;99.90
19389;DHT22;9830;41.876;23.474;2024-01-15T03:58:21;-7.90;99.90
19389;DHT22;9830;41.876;23.474;2024-01-15T04:00:46;-7.90;99.90
19389;DHT22;9830;41.876;23.474;2024-01-15T04:03:12;-8.00;99.90
19389;DHT22;9830;41.876;23.474;2024-01-15T04:05:38;-8.00;99.90
19389;DHT22;9830;41.876;23.474;2024-01-15T04:08:04;-8.10;99.90
19389;DHT22;9830;41.876;23.474;2024-01-15T04:10:30;-8.00;99.90
19389;DHT22;9830;41.876;23.474;2024-01-15T04:12:55;-8.00;99.90
19389;DHT22;9830;41.876;23.474;2024-01-15T04:15:21;-8.00;99.90
19389;DHT22;9830;41.876;23.474;2024-01-15T04:17:47;-8.00;99.90
19389;DHT22;9830;41.876;23.474;2024-01-15T04:20:12;-8.00;99.90
19389;DHT22;9830;41.876;23.474;2024-01-15T04:22:38;-7.90;99.90
19389;DHT22;9830;41.876;23.474;2024-01-15T04:25:04;-8.00;99.90
19389;DHT22;9830;41.876;23.474;2024-01-15T04:27:30;-8.00;99.90
19389;DHT22;9830;41.876;23.474;2024-01-15T04:29:56;-8.00;99.90
19389;DHT22;9830;41.876;23.474;2024-01-15T04:32:21;-8.10;99.90
19389;DHT22;9830;41.876;23.474;2024-01-15T04:34:47;-8.10;99.90
19389;DHT22;9830;41.876;23.474;2024-01-15T04:37:16;-8.00;99.90
19389;DHT22;9830;41.876;23.474;2024-01-15T04:39:42;-8.00;99.90
19389;DHT22;9830;41.876;23.474;2024-01-15T04:42:07;-7.90;99.90
19389;DHT22;9830;41.876;23.474;2024-01-15T04:44:33;-7.80;99.90
19389;DHT22;9830;41.876;23.474;2024-01-15T04:46:59;-7.80;99.90
19389;DHT22;9830;41.876;23.474;2024-01-15T04:49:24;-7.80;99.90
19389;DHT22;9830;41.876;23.474;2024-01-15T04:51:52;-7.70;99.90
19389;DHT22;9830;41.876;23.474;2024-01-15T04:54:18;-7.60;99.90
19389;DHT22;9830;41.876;23.474;2024-01-15T04:56:44;-7.60;99.90
19389;DHT22;9830;41.876;23.474;2024-01-15T04:59:10;-7.60;99.90
19389;DHT22;9830;41.876;23.474;2024-01-15T05:01:36;-7.50;99.90
19389;DHT22;9830;41.876;23.474;2024-01-15T05:04:02;-7.50;99.90
19389;DHT22;9830;41.876;23.474;2024-01-15T05:06:28;-7.50;99.90
19389;DHT22;9830;41.876;23.474;2024-01-15T05:08:53;-7.40;99.90
19389;DHT22;9830;41.876;23.474;2024-01-15T05:11:19;-7.30;99.90
19389;DHT22;9830;41.876;23.474;2024-01-15T05:13:45;-7.20;99.90
19389;DHT22;9830;41.876;23.474;2024-01-15T05:16:11;-7.20;99.90
19389;DHT22;9830;41.876;23.474;2024-01-15T05:18:36;-7.20;99.90
19389;DHT22;9830;41.876;23.474;2024-01-15T05:21:05;-7.30;99.90
19389;DHT22;9830;41.876;23.474;2024-01-15T05:23:34;-7.30;99.90
19389;DHT22;9830;41.876;23.474;2024-01-15T05:26:00;-7.30;99.90
19389;DHT22;9830;41.876;23.474;2024-01-15T05:28:25;-7.30;99.90
19389;DHT22;9830;41.876;23.474;2024-01-15T05:30:51;-7.30;99.90
19389;DHT22;9830;41.876;23.474;2024-01-15T05:33:17;-7.40;99.90
19389;DHT22;9830;41.876;23.474;2024-01-15T05:35:43;-7.40;99.90
19389;DHT22;9830;41.876;23.474;2024-01-15T05:38:09;-7.40;99.90
19389;DHT22;9830;41.876;23.474;2024-01-15T05:40:34;-7.40;99.90
19389;DHT22;9830;41.876;23.474;2024-01-15T05:43:00;-7.50;99.90
19389;DHT22;9830;41.876;23.474;2024-01-15T05:45:30;-7.50;99.90
19389;DHT22;9830;41.876;23.474;2024-01-15T05:47:56;-7.50;99.90
19389;DHT22;9830;41.876;23.474;2024-01-15T05:50:22;-7.50;99.90
19389;DHT22;9830;41.876;23.474;2024-01-15T05:52:48;-7.60;99.90
19389;DHT22;9830;41.876;23.474;2024-01-15T05:55:13;-7.60;99.90
19389;DHT22;9830;41.876;23.474;2024-01-15T05:57:39;-7.60;99.90
19389;DHT22;9830;41.876;23.474;2024-01-15T06:00:05;-7.60;99.90
19389;DHT22;9830;41.876;23.474;2024-01-15T06:02:31;-7.60;99.90
19389;DHT22;9830;41.876;23.474;2024-01-15T06:04:57;-7.50;99.90
19389;DHT22;9830;41.876;23.474;2024-01-15T06:07:23;-7.50;99.90
19389;DHT22;9830;41.876;23.474;2024-01-15T06:09:49;-7.50;99.90
19389;DHT22;9830;41.876;23.474;2024-01-15T06:12:14;-7.50;99.90
19389;DHT22;9830;41.876;23.474;2024-01-15T06:14:40;-7.30;99.90
19389;DHT22;9830;41.876;23.474;2024-01-15T06:17:07;-7.10;99.90
19389;DHT22;9830;41.876;23.474;2024-01-15T06:19:32;-7.10;99.90
19389;DHT22;9830;41.876;23.474;2024-01-15T06:21:58;-7.00;99.90
19389;DHT22;9830;41.876;23.474;2024-01-15T06:24:24;-7.00;99.90
19389;DHT22;9830;41.876;23.474;2024-01-15T06:26:49;-7.10;99.90
19389;DHT22;9830;41.876;23.474;2024-01-15T06:29:15;-6.90;99.90
19389;DHT22;9830;41.876;23.474;2024-01-15T06:31:41;-7.00;99.90
19389;DHT22;9830;41.876;23.474;2024-01-15T06:34:06;-6.90;99.90
19389;DHT22;9830;41.876;23.474;2024-01-15T06:36:32;-6.90;99.90
19389;DHT22;9830;41.876;23.474;2024-01-15T06:38:58;-6.80;99.90
19389;DHT22;9830;41.876;23.474;2024-01-15T06:41:23;-6.70;99.90
19389;DHT22;9830;41.876;23.474;2024-01-15T06:43:51;-6.60;99.90
19389;DHT22;9830;41.876;23.474;2024-01-15T06:46:20;-6.30;99.90
19389;DHT22;9830;41.876;23.474;2024-01-15T06:48:46;-6.20;99.90
19389;DHT22;9830;41.876;23.474;2024-01-15T06:51:12;-6.10;99.90
19389;DHT22;9830;41.876;23.474;2024-01-15T06:53:38;-6.00;99.90
19389;DHT22;9830;41.876;23.474;2024-01-15T06:56:03;-6.00;99.90
19389;DHT22;9830;41.876;23.474;2024-01-15T06:58:31;-5.80;99.90
19389;DHT22;9830;41.876;23.474;2024-01-15T07:00:56;-5.70;99.90
19389;DHT22;9830;41.876;23.474;2024-01-15T07:03:23;-5.50;99.90
19389;DHT22;9830;41.876;23.474;2024-01-15T07:05:49;-5.10;99.90
19389;DHT22;9830;41.876;23.474;2024-01-15T07:08:15;-4.80;99.90
19389;DHT22;9830;41.876;23.474;2024-01-15T07:10:41;-4.40;99.90
19389;DHT22;9830;41.876;23.474;2024-01-15T07:13:06;-3.80;99.90
19389;DHT22;9830;41.876;23.474;2024-01-15T07:15:32;-3.40;99.90
19389;DHT22;9830;41.876;23.474;2024-01-15T07:17:58;-3.20;99.90
19389;DHT22;9830;41.876;23.474;2024-01-15T07:20:23;-3.20;99.90
19389;DHT22;9830;41.876;23.474;2024-01-15T07:22:49;-3.20;99.90
19389;DHT22;9830;41.876;23.474;2024-01-15T07:25:15;-3.40;99.90
19389;DHT22;9830;41.876;23.474;2024-01-15T07:27:41;-3.70;99.90
19389;DHT22;9830;41.876;23.474;2024-01-15T07:30:11;-3.50;99.90
19389;DHT22;9830;41.876;23.474;2024-01-15T07:32:36;-3.50;99.90
19389;DHT22;9830;41.876;23.474;2024-01-15T07:35:03;-3.50;99.90
19389;DHT22;9830;41.876;23.474;2024-01-15T07:37:28;-3.70;99.90
19389;DHT22;9830;41.876;23.474;2024-01-15T07:39:54;-3.90;99.90
19389;DHT22;9830;41.876;23.474;2024-01-15T07:42:20;-3.80;99.90
19389;DHT22;9830;41.876;23.474;2024-01-15T07:44:45;-3.90;99.90
19389;DHT22;9830;41.876;23.474;2024-01-15T07:47:11;-3.80;99.90
19389;DHT22;9830;41.876;23.474;2024-01-15T07:49:37;-4.00;99.90
19389;DHT22;9830;41.876;23.474;2024-01-15T07:52:03;-4.00;99.90
19389;DHT22;9830;41.876;23.474;2024-01-15T07:54:31;-3.90;99.90
19389;DHT22;9830;41.876;23.474;2024-01-15T07:57:00;-3.70;99.90
19389;DHT22;9830;41.876;23.474;2024-01-15T07:59:26;-3.50;99.90
19389;DHT22;9830;41.876;23.474;2024-01-15T08:01:53;-3.40;99.90
19389;DHT22;9830;41.876;23.474;2024-01-15T08:04:19;-3.40;99.90
19389;DHT22;9830;41.876;23.474;2024-01-15T08:06:45;-3.20;99.90
19389;DHT22;9830;41.876;23.474;2024-01-15T08:09:11;-3.30;99.90
19389;DHT22;9830;41.876;23.474;2024-01-15T08:11:41;-3.30;99.90
19389;DHT22;9830;41.876;23.474;2024-01-15T08:14:08;-3.00;99.90
19389;DHT22;9830;41.876;23.474;2024-01-15T08:16:37;-2.80;99.90
19389;DHT22;9830;41.876;23.474;2024-01-15T08:19:03;-2.80;99.90
19389;DHT22;9830;41.876;23.474;2024-01-15T08:21:29;-2.80;99.90
19389;DHT22;9830;41.876;23.474;2024-01-15T08:24:02;-2.70;99.90
19389;DHT22;9830;41.876;23.474;2024-01-15T08:26:29;-2.20;99.90
19389;DHT22;9830;41.876;23.474;2024-01-15T08:28:54;-2.20;99.90
19389;DHT22;9830;41.876;23.474;2024-01-15T08:31:20;-2.00;99.90
19389;DHT22;9830;41.876;23.474;2024-01-15T08:33:46;-2.20;99.90
19389;DHT22;9830;41.876;23.474;2024-01-15T08:36:12;-2.30;99.90
19389;DHT22;9830;41.876;23.474;2024-01-15T08:38:38;-2.50;99.90
19389;DHT22;9830;41.876;23.474;2024-01-15T08:41:04;-2.20;99.90
19389;DHT22;9830;41.876;23.474;2024-01-15T08:43:30;-2.30;99.90
19389;DHT22;9830;41.876;23.474;2024-01-15T08:45:59;-2.30;99.90
19389;DHT22;9830;41.876;23.474;2024-01-15T08:48:25;-2.20;99.90
19389;DHT22;9830;41.876;23.474;2024-01-15T08:50:53;-2.10;99.90
19389;DHT22;9830;41.876;23.474;2024-01-15T08:53:19;-2.10;99.90
19389;DHT22;9830;41.876;23.474;2024-01-15T08:55:44;-2.00;99.90
19389;DHT22;9830;41.876;23.474;2024-01-15T08:58:11;-1.80;99.90
19389;DHT22;9830;41.876;23.474;2024-01-15T09:00:36;-1.70;99.90
19389;DHT22;9830;41.876;23.474;2024-01-15T09:03:02;-1.80;99.90
19389;DHT22;9830;41.876;23.474;2024-01-15T09:05:28;-1.70;99.90
19389;DHT22;9830;41.876;23.474;2024-01-15T09:07:54;-1.50;99.90
19389;DHT22;9830;41.876;23.474;2024-01-15T09:10:20;-1.20;99.90
19389;DHT22;9830;41.876;23.474;2024-01-15T09:12:46;-1.20;99.90
19389;DHT22;9830;41.876;23.474;2024-01-15T09:15:12;-1.00;99.90
19389;DHT22;9830;41.876;23.474;2024-01-15T09:17:37;-0.30;99.90
19389;DHT22;9830;41.876;23.474;2024-01-15T09:20:04;-0.30;99.90
19389;DHT22;9830;41.876;23.474;2024-01-15T09:22:31;-0.60;99.90
19389;DHT22;9830;41.876;23.474;2024-01-15T09:24:58;-1.00;99.90
19389;DHT22;9830;41.876;23.474;2024-01-15T09:27:24;-0.50;99.90
19389;DHT22;9830;41.876;23.474;2024-01-15T09:29:52;-0.60;99.90
19389;DHT22;9830;41.876;23.474;2024-01-15T09:32:17;-0.70;99.90
19389;DHT22;9830;41.876;23.474;2024-01-15T09:34:44;-0.70;99.90
19389;DHT22;9830;41.876;23.474;2024-01-15T09:37:09;-0.70;99.90
19389;DHT22;9830;41.876;23.474;2024-01-15T09:39:35;-0.60;99.90
19389;DHT22;9830;41.876;23.474;2024-01-15T09:42:01;-0.80;99.90
19389;DHT22;9830;41.876;23.474;2024-01-15T09:44:28;-0.60;99.90
19389;DHT22;9830;41.876;23.474;2024-01-15T09:46:55;-0.50;99.90
19389;DHT22;9830;41.876;23.474;2024-01-15T09:49:21;-0.80;99.90
19389;DHT22;9830;41.876;23.474;2024-01-15T09:51:47;-0.60;99.90
19389;DHT22;9830;41.876;23.474;2024-01-15T09:54:13;-0.60;99.90
19389;DHT22;9830;41.876;23.474;2024-01-15T09:56:46;-0.80;99.90
19389;DHT22;9830;41.876;23.474;2024-01-15T09:59:18;-0.50;99.90
19389;DHT22;9830;41.876;23.474;2024-01-15T10:01:45;0.00;99.90
19389;DHT22;9830;41.876;23.474;2024-01-15T10:04:14;0.00;99.90
19389;DHT22;9830;41.876;23.474;2024-01-15T10:06:44;-0.10;99.90
19389;DHT22;9830;41.876;23.474;2024-01-15T10:09:12;0.10;99.90
19389;DHT22;9830;41.876;23.474;2024-01-15T10:11:44;0.10;99.90
19389;DHT22;9830;41.876;23.474;2024-01-15T10:14:10;-0.10;99.90
19389;DHT22;9830;41.876;23.474;2024-01-15T10:16:40;-0.10;99.90
19389;DHT22;9830;41.876;23.474;2024-01-15T10:19:05;-0.20;99.90
19389;DHT22;9830;41.876;23.474;2024-01-15T10:21:35;-0.10;99.90
19389;DHT22;9830;41.876;23.474;2024-01-15T10:24:02;-0.10;99.90
19389;DHT22;9830;41.876;23.474;2024-01-15T10:26:28;-0.30;99.90
19389;DHT22;9830;41.876;23.474;2024-01-15T10:28:54;-0.20;99.90
19389;DHT22;9830;41.876;23.474;2024-01-15T10:31:20;0.10;99.90
19389;DHT22;9830;41.876;23.474;2024-01-15T10:33:48;0.40;99.90
19389;DHT22;9830;41.876;23.474;2024-01-15T10:36:16;0.90;99.90
19389;DHT22;9830;41.876;23.474;2024-01-15T10:38:43;0.90;99.90
19389;DHT22;9830;41.876;23.474;2024-01-15T10:41:09;0.80;99.90
19389;DHT22;9830;41.876;23.474;2024-01-15T10:43:35;0.90;99.90
19389;DHT22;9830;41.876;23.474;2024-01-15T10:46:00;0.80;99.90
19389;DHT22;9830;41.876;23.474;2024-01-15T10:48:26;0.80;99.90
19389;DHT22;9830;41.876;23.474;2024-01-15T10:50:54;1.00;99.90
19389;DHT22;9830;41.876;23.474;2024-01-15T10:53:20;0.80;99.90
19389;DHT22;9830;41.876;23.474;2024-01-15T10:55:47;0.80;99.90
19389;DHT22;9830;41.876;23.474;2024-01-15T10:58:17;0.80;99.90
19389;DHT22;9830;41.876;23.474;2024-01-15T11:00:43;0.80;99.90
19389;DHT22;9830;41.876;23.474;2024-01-15T11:03:09;0.80;99.90
19389;DHT22;9830;41.876;23.474;2024-01-15T11:05:39;0.80;99.90
19389;DHT22;9830;41.876;23.474;2024-01-15T11:08:07;0.70;99.90
19389;DHT22;9830;41.876;23.474;2024-01-15T11:10:47;0.60;99.90
19389;DHT22;9830;41.876;23.474;2024-01-15T11:16:03;0.70;99.90
19389;DHT22;9830;41.876;23.474;2024-01-15T11:23:54;1.20;99.90
19389;DHT22;9830;41.876;23.474;2024-01-15T11:26:44;1.20;99.90
19389;DHT22;9830;41.876;23.474;2024-01-15T11:31:57;1.10;99.90
19389;DHT22;9830;41.876;23.474;2024-01-15T11:34:50;1.20;99.90
19389;DHT22;9830;41.876;23.474;2024-01-15T11:37:16;1.30;99.90
19389;DHT22;9830;41.876;23.474;2024-01-15T11:39:43;1.40;99.90
19389;DHT22;9830;41.876;23.474;2024-01-15T11:42:11;1.30;99.90
19389;DHT22;9830;41.876;23.474;2024-01-15T11:44:37;1.20;99.90
19389;DHT22;9830;41.876;23.474;2024-01-15T11:47:08;1.10;99.90
19389;DHT22;9830;41.876;23.474;2024-01-15T11:49:59;1.20;99.90
19389;DHT22;9830;41.876;23.474;2024-01-15T11:52:26;1.20;99.90
19389;DHT22;9830;41.876;23.474;2024-01-15T11:54:55;1.20;99.90
19389;DHT22;9830;41.876;23.474;2024-01-15T11:59:58;1.30;99.90
19389;DHT22;9830;41.876;23.474;2024-01-15T12:02:24;1.30;99.90
19389;DHT22;9830;41.876;23.474;2024-01-15T12:04:50;1.20;99.90
19389;DHT22;9830;41.876;23.474;2024-01-15T12:07:15;1.10;99.90
19389;DHT22;9830;41.876;23.474;2024-01-15T12:09:44;1.00;99.90
19389;DHT22;9830;41.876;23.474;2024-01-15T12:12:16;1.10;99.90
19389;DHT22;9830;41.876;23.474;2024-01-15T12:14:42;0.90;99.90
19389;DHT22;9830;41.876;23.474;2024-01-15T12:17:07;0.90;99.90
19389;DHT22;9830;41.876;23.474;2024-01-15T12:19:33;1.10;99.90
19389;DHT22;9830;41.876;23.474;2024-01-15T12:21:59;1.30;99.90
19389;DHT22;9830;41.876;23.474;2024-01-15T12:24:25;1.40;99.90
19389;DHT22;9830;41.876;23.474;2024-01-15T12:26:50;1.40;99.90
19389;DHT22;9830;41.876;23.474;2024-01-15T12:29:18;1.30;99.90
19389;DHT22;9830;41.876;23.474;2024-01-15T12:31:49;1.20;99.90
19389;DHT22;9830;41.876;23.474;2024-01-15T12:34:14;1.20;99.90
19389;DHT22;9830;41.876;23.474;2024-01-15T12:36:41;1.10;99.90
19389;DHT22;9830;41.876;23.474;2024-01-15T12:39:11;1.10;99.90
19389;DHT22;9830;41.876;23.474;2024-01-15T12:41:38;1.10;99.90
19389;DHT22;9830;41.876;23.474;2024-01-15T12:44:04;1.00;99.90
19389;DHT22;9830;41.876;23.474;2024-01-15T12:46:30;1.10;99.90
19389;DHT22;9830;41.876;23.474;2024-01-15T12:48:57;1.10;99.90
19389;DHT22;9830;41.876;23.474;2024-01-15T12:51:25;1.10;99.90
19389;DHT22;9830;41.876;23.474;2024-01-15T12:53:52;1.10;99.90
19389;DHT22;9830;41.876;23.474;2024-01-15T12:56:18;1.30;99.90
19389;DHT22;9830;41.876;23.474;2024-01-15T12:58:43;1.40;99.90
19389;DHT22;9830;41.876;23.474;2024-01-15T13:01:09;1.20;99.90
19389;DHT22;9830;41.876;23.474;2024-01-15T13:03:40;1.00;99.90
19389;DHT22;9830;41.876;23.474;2024-01-15T13:06:06;1.10;99.90
19389;DHT22;9830;41.876;23.474;2024-01-15T13:08:32;1.10;99.90
19389;DHT22;9830;41.876;23.474;2024-01-15T13:10:57;1.20;99.90
19389;DHT22;9830;41.876;23.474;2024-01-15T13:13:23;1.00;99.90
19389;DHT22;9830;41.876;23.474;2024-01-15T13:15:49;0.80;99.90
19389;DHT22;9830;41.876;23.474;2024-01-15T13:18:15;0.70;99.90
19389;DHT22;9830;41.876;23.474;2024-01-15T13:20:41;0.40;99.90
19389;DHT22;9830;41.876;23.474;2024-01-15T13:23:07;0.30;99.90
19389;DHT22;9830;41.876;23.474;2024-01-15T13:25:33;0.20;99.90
19389;DHT22;9830;41.876;23.474;2024-01-15T13:28:01;0.10;99.90
19389;DHT22;9830;41.876;23.474;2024-01-15T13:30:27;0.10;99.90
19389;DHT22;9830;41.876;23.474;2024-01-15T13:32:53;0.20;99.90
19389;DHT22;9830;41.876;23.474;2024-01-15T13:35:21;0.20;99.90
19389;DHT22;9830;41.876;23.474;2024-01-15T13:37:47;0.20;99.90
19389;DHT22;9830;41.876;23.474;2024-01-15T13:40:13;0.30;99.90
19389;DHT22;9830;41.876;23.474;2024-01-15T13:42:42;0.30;99.90
19389;DHT22;9830;41.876;23.474;2024-01-15T13:45:08;0.30;99.90
19389;DHT22;9830;41.876;23.474;2024-01-15T13:47:34;0.50;99.90
19389;DHT22;9830;41.876;23.474;2024-01-15T13:49:59;0.70;99.90
19389;DHT22;9830;41.876;23.474;2024-01-15T13:52:25;0.70;99.90
19389;DHT22;9830;41.876;23.474;2024-01-15T13:54:54;0.50;99.90
19389;DHT22;9830;41.876;23.474;2024-01-15T13:57:20;0.40;99.90
19389;DHT22;9830;41.876;23.474;2024-01-15T13:59:46;0.30;99.90
19389;DHT22;9830;41.876;23.474;2024-01-15T14:02:11;0.40;99.90
19389;DHT22;9830;41.876;23.474;2024-01-15T14:04:38;0.30;99.90
19389;DHT22;9830;41.876;23.474;2024-01-15T14:07:04;0.20;99.90
19389;DHT22;9830;41.876;23.474;2024-01-15T14:09:29;0.10;99.90
19389;DHT22;9830;41.876;23.474;2024-01-15T14:11:57;0.10;99.90
19389;DHT22;9830;41.876;23.474;2024-01-15T14:14:22;0.20;99.90
19389;DHT22;9830;41.876;23.474;2024-01-15T14:16:49;0.10;99.90
19389;DHT22;9830;41.876;23.474;2024-01-15T14:19:14;0.00;99.90
19389;DHT22;9830;41.876;23.474;2024-01-15T14:21:40;0.00;99.90
19389;DHT22;9830;41.876;23.474;2024-01-15T14:24:07;0.00;99.90
19389;DHT22;9830;41.876;23.474;2024-01-15T14:26:34;-0.10;99.90
19389;DHT22;9830;41.876;23.474;2024-01-15T14:29:00;-0.10;99.90
19389;DHT22;9830;41.876;23.474;2024-01-15T14:31:25;0.00;99.90
19389;DHT22;9830;41.876;23.474;2024-01-15T14:33:54;0.00;99.90
19389;DHT22;9830;41.876;23.474;2024-01-15T14:36:23;0.00;99.90
19389;DHT22;9830;41.876;23.474;2024-01-15T14:38:49;-0.10;99.90
19389;DHT22;9830;41.876;23.474;2024-01-15T14:41:15;-0.20;99.90
19389;DHT22;9830;41.876;23.474;2024-01-15T14:43:42;-0.20;99.90
19389;DHT22;9830;41.876;23.474;2024-01-15T14:46:08;-0.20;99.90
19389;DHT22;9830;41.876;23.474;2024-01-15T14:48:33;-0.20;99.90
19389;DHT22;9830;41.876;23.474;2024-01-15T14:50:59;-0.20;99.90
19389;DHT22;9830;41.876;23.474;2024-01-15T14:53:25;-0.10;99.90
19389;DHT22;9830;41.876;23.474;2024-01-15T14:55:50;-0.10;99.90
19389;DHT22;9830;41.876;23.474;2024-01-15T14:58:16;-0.20;99.90
19389;DHT22;9830;41.876;23.474;2024-01-15T15:00:42;-0.20;99.90
19389;DHT22;9830;41.876;23.474;2024-01-15T15:03:07;-0.30;99.90
19389;DHT22;9830;41.876;23.474;2024-01-15T15:05:33;-0.30;99.90
19389;DHT22;9830;41.876;23.474;2024-01-15T15:07:59;0.00;99.90
19389;DHT22;9830;41.876;23.474;2024-01-15T15:10:25;0.00;99.90
19389;DHT22;9830;41.876;23.474;2024-01-15T15:12:52;-0.10;99.90
19389;DHT22;9830;41.876;23.474;2024-01-15T15:15:17;-0.10;99.90
19389;DHT22;9830;41.876;23.474;2024-01-15T15:17:43;-0.20;99.90
19389;DHT22;9830;41.876;23.474;2024-01-15T15:20:10;-0.20;99.90
19389;DHT22;9830;41.876;23.474;2024-01-15T15:22:35;-0.20;99.90
19389;DHT22;9830;41.876;23.474;2024-01-15T15:25:01;-0.20;99.90
19389;DHT22;9830;41.876;23.474;2024-01-15T15:27:27;-0.20;99.90
19389;DHT22;9830;41.876;23.474;2024-01-15T15:29:53;-0.20;99.90
19389;DHT22;9830;41.876;23.474;2024-01-15T15:32:19;-0.30;99.90
19389;DHT22;9830;41.876;23.474;2024-01-15T15:34:45;-0.20;99.90
19389;DHT22;9830;41.876;23.474;2024-01-15T15:37:11;-0.30;99.90
19389;DHT22;9830;41.876;23.474;2024-01-15T15:39:37;-0.30;99.90
19389;DHT22;9830;41.876;23.474;2024-01-15T15:42:03;-0.30;99.90
19389;DHT22;9830;41.876;23.474;2024-01-15T15:44:29;-0.30;99.90